sensor_id;sensor_type;location;lat;lon;timestamp;P1;durP1;ratioP1;P2;durP2;ratioP2
26335;SDS011;14047;50.936;4.654;2023-06-19T00:00:10;8.05;;;4.18;;
26335;SDS011;14047;50.936;4.654;2023-06-19T00:02:43;9.00;;;4.00;;
26335;SDS011;14047;50.936;4.654;2023-06-19T00:05:09;7.13;;;4.07;;
26335;SDS011;14047;50.936;4.654;2023-06-19T00:07:36;11.23;;;4.43;;
26335;SDS011;14047;50.936;4.654;2023-06-19T00:10:05;6.07;;;4.20;;
26335;SDS011;14047;50.936;4.654;2023-06-19T00:12:32;7.20;;;4.28;;
26335;SDS011;14047;50.936;4.654;2023-06-19T00:14:58;6.80;;;3.65;;
26335;SDS011;14047;50.936;4.654;2023-06-19T00:17:25;5.18;;;3.63;;
26335;SDS011;14047;50.936;4.654;2023-06-19T00:19:54;9.93;;;3.90;;
26335;SDS011;14047;50.936;4.654;2023-06-19T00:22:20;8.57;;;3.95;;
26335;SDS011;14047;50.936;4.654;2023-06-19T00:24:46;8.82;;;3.80;;
26335;SDS011;14047;50.936;4.654;2023-06-19T00:27:12;6.88;;;3.67;;
26335;SDS011;14047;50.936;4.654;2023-06-19T00:29:38;13.65;;;3.70;;
26335;SDS011;14047;50.936;4.654;2023-06-19T00:32:04;6.80;;;3.60;;
26335;SDS011;14047;50.936;4.654;2023-06-19T00:34:31;8.32;;;3.75;;
26335;SDS011;14047;50.936;4.654;2023-06-19T00:36:57;8.10;;;3.63;;
26335;SDS011;14047;50.936;4.654;2023-06-19T00:39:24;4.07;;;3.05;;
26335;SDS011;14047;50.936;4.654;2023-06-19T00:41:54;8.02;;;3.42;;
26335;SDS011;14047;50.936;4.654;2023-06-19T00:44:22;9.52;;;3.55;;
26335;SDS011;14047;50.936;4.654;2023-06-19T00:46:53;6.13;;;3.67;;
26335;SDS011;14047;50.936;4.654;2023-06-19T00:49:23;4.88;;;3.20;;
26335;SDS011;14047;50.936;4.654;2023-06-19T00:51:51;5.85;;;3.35;;
26335;SDS011;14047;50.936;4.654;2023-06-19T00:54:17;6.45;;;3.40;;
26335;SDS011;14047;50.936;4.654;2023-06-19T00:56:44;5.65;;;3.35;;
26335;SDS011;14047;50.936;4.654;2023-06-19T00:59:17;11.63;;;3.30;;
26335;SDS011;14047;50.936;4.654;2023-06-19T01:01:44;7.25;;;3.30;;
26335;SDS011;14047;50.936;4.654;2023-06-19T01:04:11;9.75;;;3.30;;
26335;SDS011;14047;50.936;4.654;2023-06-19T01:06:58;6.30;;;3.55;;
26335;SDS011;14047;50.936;4.654;2023-06-19T01:09:59;5.32;;;3.28;;
26335;SDS011;14047;50.936;4.654;2023-06-19T01:12:30;8.45;;;3.15;;
26335;SDS011;14047;50.936;4.654;2023-06-19T01:15:04;4.78;;;2.72;;
26335;SDS011;14047;50.936;4.654;2023-06-19T01:17:33;5.05;;;3.17;;
26335;SDS011;14047;50.936;4.654;2023-06-19T01:20:01;8.73;;;3.33;;
26335;SDS011;14047;50.936;4.654;2023-06-19T01:22:34;3.63;;;2.75;;
26335;SDS011;14047;50.936;4.654;2023-06-19T01:25:00;9.10;;;3.40;;
26335;SDS011;14047;50.936;4.654;2023-06-19T01:27:27;3.92;;;2.92;;
26335;SDS011;14047;50.936;4.654;2023-06-19T01:29:58;4.15;;;3.25;;
26335;SDS011;14047;50.936;4.654;2023-06-19T01:35:17;6.72;;;3.33;;
26335;SDS011;14047;50.936;4.654;2023-06-19T01:37:47;4.80;;;2.72;;
26335;SDS011;14047;50.936;4.654;2023-06-19T01:40:14;7.40;;;3.10;;
26335;SDS011;14047;50.936;4.654;2023-06-19T01:42:41;5.50;;;3.42;;
26335;SDS011;14047;50.936;4.654;2023-06-19T01:45:08;5.43;;;3.22;;
26335;SDS011;14047;50.936;4.654;2023-06-19T01:47:35;6.95;;;3.60;;
26335;SDS011;14047;50.936;4.654;2023-06-19T01:50:02;7.28;;;3.30;;
26335;SDS011;14047;50.936;4.654;2023-06-19T01:52:28;4.63;;;3.20;;
26335;SDS011;14047;50.936;4.654;2023-06-19T01:54:55;6.80;;;3.65;;
26335;SDS011;14047;50.936;4.654;2023-06-19T01:57:21;6.68;;;3.63;;
26335;SDS011;14047;50.936;4.654;2023-06-19T01:59:47;7.03;;;3.13;;
26335;SDS011;14047;50.936;4.654;2023-06-19T02:02:13;6.15;;;3.58;;
26335;SDS011;14047;50.936;4.654;2023-06-19T02:04:40;9.02;;;3.10;;
26335;SDS011;14047;50.936;4.654;2023-06-19T02:07:06;9.40;;;3.25;;
26335;SDS011;14047;50.936;4.654;2023-06-19T02:09:33;4.28;;;3.40;;
26335;SDS011;14047;50.936;4.654;2023-06-19T02:11:59;5.93;;;3.83;;
26335;SDS011;14047;50.936;4.654;2023-06-19T02:14:26;6.82;;;3.70;;
26335;SDS011;14047;50.936;4.654;2023-06-19T02:16:52;4.38;;;2.92;;
26335;SDS011;14047;50.936;4.654;2023-06-19T02:19:18;7.28;;;3.45;;
26335;SDS011;14047;50.936;4.654;2023-06-19T02:21:44;5.63;;;3.58;;
26335;SDS011;14047;50.936;4.654;2023-06-19T02:24:10;5.43;;;3.30;;
26335;SDS011;14047;50.936;4.654;2023-06-19T02:26:37;5.72;;;3.42;;
26335;SDS011;14047;50.936;4.654;2023-06-19T02:29:03;6.00;;;3.55;;
26335;SDS011;14047;50.936;4.654;2023-06-19T02:31:30;6.50;;;4.45;;
26335;SDS011;14047;50.936;4.654;2023-06-19T02:33:57;4.35;;;2.78;;
26335;SDS011;14047;50.936;4.654;2023-06-19T02:36:23;7.00;;;3.15;;
26335;SDS011;14047;50.936;4.654;2023-06-19T02:38:49;5.88;;;2.90;;
26335;SDS011;14047;50.936;4.654;2023-06-19T02:41:15;7.88;;;3.78;;
26335;SDS011;14047;50.936;4.654;2023-06-19T02:43:41;4.68;;;3.42;;
26335;SDS011;14047;50.936;4.654;2023-06-19T02:46:09;6.57;;;3.80;;
26335;SDS011;14047;50.936;4.654;2023-06-19T02:48:35;8.73;;;4.22;;
26335;SDS011;14047;50.936;4.654;2023-06-19T02:51:01;6.57;;;3.90;;
26335;SDS011;14047;50.936;4.654;2023-06-19T02:53:27;6.95;;;3.50;;
26335;SDS011;14047;50.936;4.654;2023-06-19T02:55:53;5.68;;;3.35;;
26335;SDS011;14047;50.936;4.654;2023-06-19T02:58:20;7.57;;;3.72;;
26335;SDS011;14047;50.936;4.654;2023-06-19T03:00:46;5.72;;;3.97;;
26335;SDS011;14047;50.936;4.654;2023-06-19T03:03:14;5.97;;;3.63;;
26335;SDS011;14047;50.936;4.654;2023-06-19T03:05:40;7.82;;;4.40;;
26335;SDS011;14047;50.936;4.654;2023-06-19T03:08:06;6.75;;;3.65;;
26335;SDS011;14047;50.936;4.654;2023-06-19T03:10:32;4.70;;;3.63;;
26335;SDS011;14047;50.936;4.654;2023-06-19T03:12:59;11.10;;;4.10;;
26335;SDS011;14047;50.936;4.654;2023-06-19T03:15:26;6.82;;;3.67;;
26335;SDS011;14047;50.936;4.654;2023-06-19T03:17:52;7.15;;;3.67;;
26335;SDS011;14047;50.936;4.654;2023-06-19T03:20:19;8.57;;;4.10;;
26335;SDS011;14047;50.936;4.654;2023-06-19T03:22:54;7.07;;;3.65;;
26335;SDS011;14047;50.936;4.654;2023-06-19T03:25:22;9.88;;;4.10;;
26335;SDS011;14047;50.936;4.654;2023-06-19T03:27:48;5.57;;;3.83;;
26335;SDS011;14047;50.936;4.654;2023-06-19T03:30:14;9.30;;;3.67;;
26335;SDS011;14047;50.936;4.654;2023-06-19T03:32:44;6.07;;;4.00;;
26335;SDS011;14047;50.936;4.654;2023-06-19T03:35:19;5.25;;;3.75;;
26335;SDS011;14047;50.936;4.654;2023-06-19T03:37:45;7.75;;;4.32;;
26335;SDS011;14047;50.936;4.654;2023-06-19T03:40:12;8.40;;;3.83;;
26335;SDS011;14047;50.936;4.654;2023-06-19T03:42:41;4.88;;;3.97;;
26335;SDS011;14047;50.936;4.654;2023-06-19T03:45:08;13.85;;;4.88;;
26335;SDS011;14047;50.936;4.654;2023-06-19T03:47:34;9.93;;;4.78;;
26335;SDS011;14047;50.936;4.654;2023-06-19T03:50:00;9.20;;;4.68;;
26335;SDS011;14047;50.936;4.654;2023-06-19T03:52:26;7.22;;;5.15;;
26335;SDS011;14047;50.936;4.654;2023-06-19T03:54:52;6.55;;;5.22;;
26335;SDS011;14047;50.936;4.654;2023-06-19T03:57:22;5.93;;;5.25;;
26335;SDS011;14047;50.936;4.654;2023-06-19T03:59:48;6.97;;;5.40;;
26335;SDS011;14047;50.936;4.654;2023-06-19T04:02:14;8.77;;;6.63;;
26335;SDS011;14047;50.936;4.654;2023-06-19T04:04:42;11.63;;;6.30;;
26335;SDS011;14047;50.936;4.654;2023-06-19T04:07:08;7.63;;;5.53;;
26335;SDS011;14047;50.936;4.654;2023-06-19T04:09:34;8.98;;;5.72;;
26335;SDS011;14047;50.936;4.654;2023-06-19T04:12:00;10.68;;;6.05;;
26335;SDS011;14047;50.936;4.654;2023-06-19T04:14:26;11.43;;;6.35;;
26335;SDS011;14047;50.936;4.654;2023-06-19T04:16:54;8.23;;;6.55;;
26335;SDS011;14047;50.936;4.654;2023-06-19T04:19:20;10.00;;;5.95;;
26335;SDS011;14047;50.936;4.654;2023-06-19T04:21:46;8.65;;;6.03;;
26335;SDS011;14047;50.936;4.654;2023-06-19T04:24:12;9.93;;;7.20;;
26335;SDS011;14047;50.936;4.654;2023-06-19T04:26:38;12.95;;;8.02;;
26335;SDS011;14047;50.936;4.654;2023-06-19T04:29:04;16.90;;;10.88;;
26335;SDS011;14047;50.936;4.654;2023-06-19T04:31:31;17.90;;;11.25;;
26335;SDS011;14047;50.936;4.654;2023-06-19T04:33:58;13.60;;;10.70;;
26335;SDS011;14047;50.936;4.654;2023-06-19T04:36:23;15.18;;;10.70;;
26335;SDS011;14047;50.936;4.654;2023-06-19T04:38:49;12.70;;;8.98;;
26335;SDS011;14047;50.936;4.654;2023-06-19T04:41:18;14.90;;;9.57;;
26335;SDS011;14047;50.936;4.654;2023-06-19T04:43:44;12.60;;;7.85;;
26335;SDS011;14047;50.936;4.654;2023-06-19T04:46:10;9.40;;;6.35;;
26335;SDS011;14047;50.936;4.654;2023-06-19T04:48:36;10.32;;;6.70;;
26335;SDS011;14047;50.936;4.654;2023-06-19T04:51:02;9.55;;;5.85;;
26335;SDS011;14047;50.936;4.654;2023-06-19T04:53:29;9.23;;;5.75;;
26335;SDS011;14047;50.936;4.654;2023-06-19T04:55:55;9.90;;;5.97;;
26335;SDS011;14047;50.936;4.654;2023-06-19T04:58:21;8.93;;;6.00;;
26335;SDS011;14047;50.936;4.654;2023-06-19T05:00:47;9.93;;;6.63;;
26335;SDS011;14047;50.936;4.654;2023-06-19T05:03:16;11.18;;;6.80;;
26335;SDS011;14047;50.936;4.654;2023-06-19T05:05:43;10.77;;;7.38;;
26335;SDS011;14047;50.936;4.654;2023-06-19T05:08:09;10.32;;;7.35;;
26335;SDS011;14047;50.936;4.654;2023-06-19T05:10:35;13.10;;;7.97;;
26335;SDS011;14047;50.936;4.654;2023-06-19T05:13:01;11.35;;;8.32;;
26335;SDS011;14047;50.936;4.654;2023-06-19T05:15:28;11.73;;;7.97;;
26335;SDS011;14047;50.936;4.654;2023-06-19T05:17:54;12.65;;;8.10;;
26335;SDS011;14047;50.936;4.654;2023-06-19T05:20:20;9.77;;;7.55;;
26335;SDS011;14047;50.936;4.654;2023-06-19T05:22:46;10.70;;;7.65;;
26335;SDS011;14047;50.936;4.654;2023-06-19T05:25:12;10.55;;;7.63;;
26335;SDS011;14047;50.936;4.654;2023-06-19T05:27:38;10.93;;;7.65;;
26335;SDS011;14047;50.936;4.654;2023-06-19T05:30:04;10.60;;;7.45;;
26335;SDS011;14047;50.936;4.654;2023-06-19T05:32:31;13.70;;;8.25;;
26335;SDS011;14047;50.936;4.654;2023-06-19T05:34:57;13.23;;;8.48;;
26335;SDS011;14047;50.936;4.654;2023-06-19T05:37:23;14.20;;;8.23;;
26335;SDS011;14047;50.936;4.654;2023-06-19T05:39:49;12.48;;;7.68;;
26335;SDS011;14047;50.936;4.654;2023-06-19T05:42:15;11.27;;;7.88;;
26335;SDS011;14047;50.936;4.654;2023-06-19T05:44:41;12.10;;;8.85;;
26335;SDS011;14047;50.936;4.654;2023-06-19T05:47:07;10.95;;;8.35;;
26335;SDS011;14047;50.936;4.654;2023-06-19T05:49:33;15.52;;;9.52;;
26335;SDS011;14047;50.936;4.654;2023-06-19T05:51:59;14.43;;;9.15;;
26335;SDS011;14047;50.936;4.654;2023-06-19T05:54:25;11.73;;;9.18;;
26335;SDS011;14047;50.936;4.654;2023-06-19T05:56:52;14.52;;;9.18;;
26335;SDS011;14047;50.936;4.654;2023-06-19T05:59:20;14.85;;;9.43;;
26335;SDS011;14047;50.936;4.654;2023-06-19T06:01:47;14.63;;;9.85;;
26335;SDS011;14047;50.936;4.654;2023-06-19T06:04:13;14.40;;;9.05;;
26335;SDS011;14047;50.936;4.654;2023-06-19T06:06:39;12.57;;;8.55;;
26335;SDS011;14047;50.936;4.654;2023-06-19T06:09:05;13.77;;;8.07;;
26335;SDS011;14047;50.936;4.654;2023-06-19T06:11:31;14.02;;;9.40;;
26335;SDS011;14047;50.936;4.654;2023-06-19T06:13:57;15.70;;;9.18;;
26335;SDS011;14047;50.936;4.654;2023-06-19T06:16:23;13.88;;;9.52;;
26335;SDS011;14047;50.936;4.654;2023-06-19T06:18:49;15.25;;;8.73;;
26335;SDS011;14047;50.936;4.654;2023-06-19T06:21:14;13.18;;;9.43;;
26335;SDS011;14047;50.936;4.654;2023-06-19T06:23:41;12.88;;;9.48;;
26335;SDS011;14047;50.936;4.654;2023-06-19T06:26:07;14.98;;;9.77;;
26335;SDS011;14047;50.936;4.654;2023-06-19T06:28:33;14.70;;;10.32;;
26335;SDS011;14047;50.936;4.654;2023-06-19T06:30:58;13.15;;;8.95;;
26335;SDS011;14047;50.936;4.654;2023-06-19T06:33:24;12.85;;;9.35;;
26335;SDS011;14047;50.936;4.654;2023-06-19T06:35:50;13.95;;;9.35;;
26335;SDS011;14047;50.936;4.654;2023-06-19T06:38:17;13.80;;;9.40;;
26335;SDS011;14047;50.936;4.654;2023-06-19T06:40:43;13.77;;;9.23;;
26335;SDS011;14047;50.936;4.654;2023-06-19T06:43:09;13.73;;;9.90;;
26335;SDS011;14047;50.936;4.654;2023-06-19T06:45:34;16.73;;;10.20;;
26335;SDS011;14047;50.936;4.654;2023-06-19T06:48:03;15.73;;;9.43;;
26335;SDS011;14047;50.936;4.654;2023-06-19T06:50:32;16.05;;;10.60;;
26335;SDS011;14047;50.936;4.654;2023-06-19T06:52:58;16.40;;;9.10;;
26335;SDS011;14047;50.936;4.654;2023-06-19T06:55:24;20.08;;;8.98;;
26335;SDS011;14047;50.936;4.654;2023-06-19T06:57:50;14.60;;;9.05;;
26335;SDS011;14047;50.936;4.654;2023-06-19T07:00:18;13.10;;;8.38;;
26335;SDS011;14047;50.936;4.654;2023-06-19T07:02:44;14.30;;;9.35;;
26335;SDS011;14047;50.936;4.654;2023-06-19T07:05:13;16.73;;;7.57;;
26335;SDS011;14047;50.936;4.654;2023-06-19T07:07:39;13.63;;;8.45;;
26335;SDS011;14047;50.936;4.654;2023-06-19T07:10:05;11.48;;;8.30;;
26335;SDS011;14047;50.936;4.654;2023-06-19T07:12:31;13.38;;;8.30;;
26335;SDS011;14047;50.936;4.654;2023-06-19T07:14:58;12.80;;;8.02;;
26335;SDS011;14047;50.936;4.654;2023-06-19T07:17:24;13.90;;;9.57;;
26335;SDS011;14047;50.936;4.654;2023-06-19T07:19:50;15.23;;;9.02;;
26335;SDS011;14047;50.936;4.654;2023-06-19T07:22:16;13.43;;;9.68;;
26335;SDS011;14047;50.936;4.654;2023-06-19T07:24:42;16.77;;;10.00;;
26335;SDS011;14047;50.936;4.654;2023-06-19T07:27:08;13.02;;;10.15;;
26335;SDS011;14047;50.936;4.654;2023-06-19T07:29:34;19.00;;;10.88;;
26335;SDS011;14047;50.936;4.654;2023-06-19T07:32:00;16.45;;;10.10;;
26335;SDS011;14047;50.936;4.654;2023-06-19T07:34:28;12.73;;;10.40;;
26335;SDS011;14047;50.936;4.654;2023-06-19T07:36:54;18.95;;;11.07;;
26335;SDS011;14047;50.936;4.654;2023-06-19T07:39:20;19.77;;;11.63;;
26335;SDS011;14047;50.936;4.654;2023-06-19T07:41:46;14.93;;;10.27;;
26335;SDS011;14047;50.936;4.654;2023-06-19T07:44:12;15.98;;;10.90;;
26335;SDS011;14047;50.936;4.654;2023-06-19T07:46:38;14.75;;;10.00;;
26335;SDS011;14047;50.936;4.654;2023-06-19T07:49:04;13.18;;;9.75;;
26335;SDS011;14047;50.936;4.654;2023-06-19T07:51:30;17.33;;;11.02;;
26335;SDS011;14047;50.936;4.654;2023-06-19T07:53:56;14.18;;;10.00;;
26335;SDS011;14047;50.936;4.654;2023-06-19T07:56:22;15.40;;;9.52;;
26335;SDS011;14047;50.936;4.654;2023-06-19T07:58:48;19.27;;;9.82;;
26335;SDS011;14047;50.936;4.654;2023-06-19T08:01:14;14.88;;;9.68;;
26335;SDS011;14047;50.936;4.654;2023-06-19T08:03:41;15.30;;;9.50;;
26335;SDS011;14047;50.936;4.654;2023-06-19T08:06:07;16.25;;;9.35;;
26335;SDS011;14047;50.936;4.654;2023-06-19T08:08:33;12.50;;;9.20;;
26335;SDS011;14047;50.936;4.654;2023-06-19T08:10:59;15.55;;;10.60;;
26335;SDS011;14047;50.936;4.654;2023-06-19T08:13:25;13.40;;;8.75;;
26335;SDS011;14047;50.936;4.654;2023-06-19T08:15:51;14.93;;;9.30;;
26335;SDS011;14047;50.936;4.654;2023-06-19T08:18:17;12.43;;;8.82;;
26335;SDS011;14047;50.936;4.654;2023-06-19T08:20:43;17.75;;;9.43;;
26335;SDS011;14047;50.936;4.654;2023-06-19T08:23:09;14.52;;;8.77;;
26335;SDS011;14047;50.936;4.654;2023-06-19T08:25:35;15.07;;;9.23;;
26335;SDS011;14047;50.936;4.654;2023-06-19T08:28:01;17.05;;;9.27;;
26335;SDS011;14047;50.936;4.654;2023-06-19T08:30:27;13.77;;;8.40;;
26335;SDS011;14047;50.936;4.654;2023-06-19T08:32:56;17.92;;;9.02;;
26335;SDS011;14047;50.936;4.654;2023-06-19T08:35:22;14.07;;;9.80;;
26335;SDS011;14047;50.936;4.654;2023-06-19T08:37:48;13.73;;;8.50;;
26335;SDS011;14047;50.936;4.654;2023-06-19T08:40:14;12.82;;;8.07;;
26335;SDS011;14047;50.936;4.654;2023-06-19T08:42:40;13.20;;;8.30;;
26335;SDS011;14047;50.936;4.654;2023-06-19T08:45:08;11.63;;;8.10;;
26335;SDS011;14047;50.936;4.654;2023-06-19T08:47:37;12.05;;;8.15;;
26335;SDS011;14047;50.936;4.654;2023-06-19T08:50:03;16.52;;;8.27;;
26335;SDS011;14047;50.936;4.654;2023-06-19T08:52:29;10.75;;;8.50;;
26335;SDS011;14047;50.936;4.654;2023-06-19T08:54:55;12.70;;;8.32;;
26335;SDS011;14047;50.936;4.654;2023-06-19T08:57:21;11.43;;;7.70;;
26335;SDS011;14047;50.936;4.654;2023-06-19T08:59:50;12.57;;;8.10;;
26335;SDS011;14047;50.936;4.654;2023-06-19T09:02:16;13.10;;;7.90;;
26335;SDS011;14047;50.936;4.654;2023-06-19T09:04:43;16.33;;;7.30;;
26335;SDS011;14047;50.936;4.654;2023-06-19T09:07:13;13.70;;;7.55;;
26335;SDS011;14047;50.936;4.654;2023-06-19T09:09:44;11.15;;;6.95;;
26335;SDS011;14047;50.936;4.654;2023-06-19T09:12:13;9.48;;;6.95;;
26335;SDS011;14047;50.936;4.654;2023-06-19T09:14:43;12.82;;;7.30;;
26335;SDS011;14047;50.936;4.654;2023-06-19T09:17:11;10.52;;;7.20;;
26335;SDS011;14047;50.936;4.654;2023-06-19T09:19:46;10.23;;;6.93;;
26335;SDS011;14047;50.936;4.654;2023-06-19T09:22:13;12.70;;;6.90;;
26335;SDS011;14047;50.936;4.654;2023-06-19T09:24:41;15.60;;;8.32;;
26335;SDS011;14047;50.936;4.654;2023-06-19T09:27:08;9.75;;;6.63;;
26335;SDS011;14047;50.936;4.654;2023-06-19T09:29:39;10.07;;;6.65;;
26335;SDS011;14047;50.936;4.654;2023-06-19T09:32:19;10.60;;;6.57;;
26335;SDS011;14047;50.936;4.654;2023-06-19T09:34:47;10.55;;;6.20;;
26335;SDS011;14047;50.936;4.654;2023-06-19T09:37:18;9.15;;;6.65;;
26335;SDS011;14047;50.936;4.654;2023-06-19T09:39:50;11.18;;;5.82;;
26335;SDS011;14047;50.936;4.654;2023-06-19T09:42:31;10.18;;;6.50;;
26335;SDS011;14047;50.936;4.654;2023-06-19T09:44:58;11.50;;;5.82;;
26335;SDS011;14047;50.936;4.654;2023-06-19T09:47:30;10.82;;;6.60;;
26335;SDS011;14047;50.936;4.654;2023-06-19T09:49:57;10.55;;;6.32;;
26335;SDS011;14047;50.936;4.654;2023-06-19T09:52:25;10.88;;;6.47;;
26335;SDS011;14047;50.936;4.654;2023-06-19T09:55:04;9.20;;;6.30;;
26335;SDS011;14047;50.936;4.654;2023-06-19T09:57:32;11.63;;;6.57;;
26335;SDS011;14047;50.936;4.654;2023-06-19T09:59:59;12.57;;;6.30;;
26335;SDS011;14047;50.936;4.654;2023-06-19T10:02:41;10.55;;;6.03;;
26335;SDS011;14047;50.936;4.654;2023-06-19T10:05:08;13.02;;;6.75;;
26335;SDS011;14047;50.936;4.654;2023-06-19T10:07:37;13.13;;;6.72;;
26335;SDS011;14047;50.936;4.654;2023-06-19T10:10:07;8.05;;;6.15;;
26335;SDS011;14047;50.936;4.654;2023-06-19T10:15:08;8.38;;;6.28;;
26335;SDS011;14047;50.936;4.654;2023-06-19T10:17:34;13.13;;;7.05;;
26335;SDS011;14047;50.936;4.654;2023-06-19T10:20:00;13.43;;;7.05;;
26335;SDS011;14047;50.936;4.654;2023-06-19T10:22:30;11.68;;;6.78;;
26335;SDS011;14047;50.936;4.654;2023-06-19T10:24:57;12.23;;;6.93;;
26335;SDS011;14047;50.936;4.654;2023-06-19T10:27:24;12.20;;;7.43;;
26335;SDS011;14047;50.936;4.654;2023-06-19T10:29:54;10.93;;;6.90;;
26335;SDS011;14047;50.936;4.654;2023-06-19T10:32:20;10.82;;;7.22;;
26335;SDS011;14047;50.936;4.654;2023-06-19T10:34:47;11.95;;;7.35;;
26335;SDS011;14047;50.936;4.654;2023-06-19T10:37:17;10.65;;;6.75;;
26335;SDS011;14047;50.936;4.654;2023-06-19T10:39:43;12.52;;;7.70;;
26335;SDS011;14047;50.936;4.654;2023-06-19T10:42:09;10.70;;;7.10;;
26335;SDS011;14047;50.936;4.654;2023-06-19T10:44:35;11.88;;;6.60;;
26335;SDS011;14047;50.936;4.654;2023-06-19T10:47:04;13.15;;;7.60;;
26335;SDS011;14047;50.936;4.654;2023-06-19T10:49:32;10.27;;;6.55;;
26335;SDS011;14047;50.936;4.654;2023-06-19T10:51:58;11.38;;;7.25;;
26335;SDS011;14047;50.936;4.654;2023-06-19T10:54:25;11.88;;;6.28;;
26335;SDS011;14047;50.936;4.654;2023-06-19T10:56:53;9.88;;;6.53;;
26335;SDS011;14047;50.936;4.654;2023-06-19T10:59:19;12.45;;;6.90;;
26335;SDS011;14047;50.936;4.654;2023-06-19T11:01:46;11.35;;;7.15;;
26335;SDS011;14047;50.936;4.654;2023-06-19T11:04:14;11.52;;;7.25;;
26335;SDS011;14047;50.936;4.654;2023-06-19T11:06:41;9.30;;;7.10;;
26335;SDS011;14047;50.936;4.654;2023-06-19T11:09:09;14.00;;;7.30;;
26335;SDS011;14047;50.936;4.654;2023-06-19T11:14:07;10.43;;;7.07;;
26335;SDS011;14047;50.936;4.654;2023-06-19T11:16:34;14.90;;;7.03;;
26335;SDS011;14047;50.936;4.654;2023-06-19T11:19:02;12.77;;;7.63;;
26335;SDS011;14047;50.936;4.654;2023-06-19T11:21:32;9.85;;;6.65;;
26335;SDS011;14047;50.936;4.654;2023-06-19T11:24:04;11.07;;;6.47;;
26335;SDS011;14047;50.936;4.654;2023-06-19T11:26:37;13.40;;;6.82;;
26335;SDS011;14047;50.936;4.654;2023-06-19T11:29:14;11.20;;;6.70;;
26335;SDS011;14047;50.936;4.654;2023-06-19T11:31:44;13.07;;;7.55;;
26335;SDS011;14047;50.936;4.654;2023-06-19T11:34:12;15.95;;;7.45;;
26335;SDS011;14047;50.936;4.654;2023-06-19T11:36:40;10.43;;;7.28;;
26335;SDS011;14047;50.936;4.654;2023-06-19T11:39:11;13.70;;;7.95;;
26335;SDS011;14047;50.936;4.654;2023-06-19T11:41:45;10.90;;;7.22;;
26335;SDS011;14047;50.936;4.654;2023-06-19T11:44:11;20.20;;;7.80;;
26335;SDS011;14047;50.936;4.654;2023-06-19T11:46:38;10.35;;;6.50;;
26335;SDS011;14047;50.936;4.654;2023-06-19T11:49:11;11.93;;;7.18;;
26335;SDS011;14047;50.936;4.654;2023-06-19T11:51:39;16.90;;;8.65;;
26335;SDS011;14047;50.936;4.654;2023-06-19T11:54:09;12.98;;;8.45;;
26335;SDS011;14047;50.936;4.654;2023-06-19T11:56:37;12.13;;;7.93;;
26335;SDS011;14047;50.936;4.654;2023-06-19T11:59:04;11.63;;;7.90;;
26335;SDS011;14047;50.936;4.654;2023-06-19T12:01:34;10.82;;;6.85;;
26335;SDS011;14047;50.936;4.654;2023-06-19T12:04:01;8.57;;;6.18;;
26335;SDS011;14047;50.936;4.654;2023-06-19T12:06:29;10.57;;;6.38;;
26335;SDS011;14047;50.936;4.654;2023-06-19T12:08:56;10.48;;;6.63;;
26335;SDS011;14047;50.936;4.654;2023-06-19T12:11:22;9.35;;;6.28;;
26335;SDS011;14047;50.936;4.654;2023-06-19T12:13:50;9.73;;;7.13;;
26335;SDS011;14047;50.936;4.654;2023-06-19T12:16:18;11.05;;;7.60;;
26335;SDS011;14047;50.936;4.654;2023-06-19T12:18:44;12.48;;;7.13;;
26335;SDS011;14047;50.936;4.654;2023-06-19T12:21:10;12.50;;;7.13;;
26335;SDS011;14047;50.936;4.654;2023-06-19T12:23:36;12.27;;;7.10;;
26335;SDS011;14047;50.936;4.654;2023-06-19T12:26:02;10.95;;;6.63;;
26335;SDS011;14047;50.936;4.654;2023-06-19T12:28:28;13.65;;;7.18;;
26335;SDS011;14047;50.936;4.654;2023-06-19T12:30:55;13.85;;;7.13;;
26335;SDS011;14047;50.936;4.654;2023-06-19T12:33:22;11.45;;;6.53;;
26335;SDS011;14047;50.936;4.654;2023-06-19T12:35:48;9.20;;;6.20;;
26335;SDS011;14047;50.936;4.654;2023-06-19T12:38:15;10.48;;;6.10;;
26335;SDS011;14047;50.936;4.654;2023-06-19T12:40:41;8.15;;;5.63;;
26335;SDS011;14047;50.936;4.654;2023-06-19T12:43:07;9.02;;;5.53;;
26335;SDS011;14047;50.936;4.654;2023-06-19T12:45:33;10.25;;;5.82;;
26335;SDS011;14047;50.936;4.654;2023-06-19T12:47:59;9.40;;;6.15;;
26335;SDS011;14047;50.936;4.654;2023-06-19T12:50:25;10.43;;;5.70;;
26335;SDS011;14047;50.936;4.654;2023-06-19T12:52:51;9.50;;;5.65;;
26335;SDS011;14047;50.936;4.654;2023-06-19T12:55:17;10.15;;;5.70;;
26335;SDS011;14047;50.936;4.654;2023-06-19T12:57:43;9.70;;;6.47;;
26335;SDS011;14047;50.936;4.654;2023-06-19T13:00:10;7.63;;;5.47;;
26335;SDS011;14047;50.936;4.654;2023-06-19T13:02:38;11.13;;;6.13;;
26335;SDS011;14047;50.936;4.654;2023-06-19T13:05:05;9.75;;;5.72;;
26335;SDS011;14047;50.936;4.654;2023-06-19T13:07:32;9.35;;;5.63;;
26335;SDS011;14047;50.936;4.654;2023-06-19T13:09:58;8.35;;;5.53;;
26335;SDS011;14047;50.936;4.654;2023-06-19T13:12:24;8.82;;;5.07;;
26335;SDS011;14047;50.936;4.654;2023-06-19T13:14:50;10.35;;;5.03;;
26335;SDS011;14047;50.936;4.654;2023-06-19T13:17:16;6.60;;;5.30;;
26335;SDS011;14047;50.936;4.654;2023-06-19T13:19:42;7.07;;;4.85;;
26335;SDS011;14047;50.936;4.654;2023-06-19T13:22:08;7.82;;;5.10;;
26335;SDS011;14047;50.936;4.654;2023-06-19T13:24:34;7.53;;;4.78;;
26335;SDS011;14047;50.936;4.654;2023-06-19T13:27:00;7.95;;;4.70;;
26335;SDS011;14047;50.936;4.654;2023-06-19T13:29:27;7.53;;;4.93;;
26335;SDS011;14047;50.936;4.654;2023-06-19T13:31:53;6.68;;;4.72;;
26335;SDS011;14047;50.936;4.654;2023-06-19T13:34:19;6.50;;;5.00;;
26335;SDS011;14047;50.936;4.654;2023-06-19T13:36:47;7.57;;;4.72;;
26335;SDS011;14047;50.936;4.654;2023-06-19T13:39:13;8.07;;;4.63;;
26335;SDS011;14047;50.936;4.654;2023-06-19T13:41:39;7.90;;;4.75;;
26335;SDS011;14047;50.936;4.654;2023-06-19T13:44:05;7.53;;;4.82;;
26335;SDS011;14047;50.936;4.654;2023-06-19T13:46:32;8.00;;;3.65;;
26335;SDS011;14047;50.936;4.654;2023-06-19T13:48:58;7.05;;;3.75;;
26335;SDS011;14047;50.936;4.654;2023-06-19T13:51:24;6.03;;;4.10;;
26335;SDS011;14047;50.936;4.654;2023-06-19T13:53:50;6.95;;;3.72;;
26335;SDS011;14047;50.936;4.654;2023-06-19T13:56:17;7.10;;;4.85;;
26335;SDS011;14047;50.936;4.654;2023-06-19T13:58:43;6.95;;;4.38;;
26335;SDS011;14047;50.936;4.654;2023-06-19T14:01:09;7.18;;;4.43;;
26335;SDS011;14047;50.936;4.654;2023-06-19T14:03:36;6.90;;;4.45;;
26335;SDS011;14047;50.936;4.654;2023-06-19T14:06:03;6.82;;;4.50;;
26335;SDS011;14047;50.936;4.654;2023-06-19T14:08:29;6.18;;;4.03;;
26335;SDS011;14047;50.936;4.654;2023-06-19T14:10:55;6.35;;;4.05;;
26335;SDS011;14047;50.936;4.654;2023-06-19T14:13:21;9.02;;;4.35;;
26335;SDS011;14047;50.936;4.654;2023-06-19T14:15:47;5.50;;;4.18;;
26335;SDS011;14047;50.936;4.654;2023-06-19T14:18:13;6.38;;;4.55;;
26335;SDS011;14047;50.936;4.654;2023-06-19T14:20:39;8.05;;;4.35;;
26335;SDS011;14047;50.936;4.654;2023-06-19T14:23:07;4.68;;;3.85;;
26335;SDS011;14047;50.936;4.654;2023-06-19T14:25:34;6.57;;;3.95;;
26335;SDS011;14047;50.936;4.654;2023-06-19T14:28:00;6.13;;;3.80;;
26335;SDS011;14047;50.936;4.654;2023-06-19T14:30:26;5.65;;;4.03;;
26335;SDS011;14047;50.936;4.654;2023-06-19T14:32:52;6.13;;;4.20;;
26335;SDS011;14047;50.936;4.654;2023-06-19T14:35:18;5.47;;;3.85;;
26335;SDS011;14047;50.936;4.654;2023-06-19T14:37:44;5.00;;;4.05;;
26335;SDS011;14047;50.936;4.654;2023-06-19T14:40:10;5.13;;;3.45;;
26335;SDS011;14047;50.936;4.654;2023-06-19T14:42:36;5.88;;;4.30;;
26335;SDS011;14047;50.936;4.654;2023-06-19T14:45:03;6.45;;;3.40;;
26335;SDS011;14047;50.936;4.654;2023-06-19T14:47:29;5.75;;;3.53;;